sensor_id;sensor_type;location;lat;lon;timestamp;temperature;humidity
65472;DHT22;52068;50.710;14.492;2023-01-01T00:02:09;23.51;44.03
65472;DHT22;52068;50.710;14.492;2023-01-01T00:04:35;23.48;44.10
65472;DHT22;52068;50.710;14.492;2023-01-01T00:07:00;23.40;44.43
65472;DHT22;52068;50.710;14.492;2023-01-01T00:09:25;23.33;44.48
65472;DHT22;52068;50.710;14.492;2023-01-01T00:12:09;23.28;44.66
65472;DHT22;52068;50.710;14.492;2023-01-01T00:14:35;23.27;44.78
65472;DHT22;52068;50.710;14.492;2023-01-01T00:17:00;23.18;44.92
65472;DHT22;52068;50.710;14.492;2023-01-01T00:19:26;23.13;45.07
65472;DHT22;52068;50.710;14.492;2023-01-01T00:21:51;23.04;45.21
65472;DHT22;52068;50.710;14.492;2023-01-01T00:24:17;23.08;45.24
65472;DHT22;52068;50.710;14.492;2023-01-01T00:26:42;23.06;45.48
65472;DHT22;52068;50.710;14.492;2023-01-01T00:29:07;23.04;45.52
65472;DHT22;52068;50.710;14.492;2023-01-01T00:31:33;23.07;45.51
65472;DHT22;52068;50.710;14.492;2023-01-01T00:33:58;23.15;45.31
65472;DHT22;52068;50.710;14.492;2023-01-01T00:36:25;23.27;45.09
65472;DHT22;52068;50.710;14.492;2023-01-01T00:38:50;23.34;44.92
65472;DHT22;52068;50.710;14.492;2023-01-01T00:41:16;23.41;44.56
65472;DHT22;52068;50.710;14.492;2023-01-01T00:43:42;23.47;44.27
65472;DHT22;52068;50.710;14.492;2023-01-01T00:46:08;23.54;44.36
65472;DHT22;52068;50.710;14.492;2023-01-01T00:48:34;23.50;44.30
65472;DHT22;52068;50.710;14.492;2023-01-01T00:50:59;23.50;44.32
65472;DHT22;52068;50.710;14.492;2023-01-01T00:53:25;23.51;44.35
65472;DHT22;52068;50.710;14.492;2023-01-01T00:55:51;23.47;44.35
65472;DHT22;52068;50.710;14.492;2023-01-01T00:58:18;23.47;44.40
65472;DHT22;52068;50.710;14.492;2023-01-01T01:00:44;23.41;44.62
65472;DHT22;52068;50.710;14.492;2023-01-01T01:03:10;23.40;44.95
65472;DHT22;52068;50.710;14.492;2023-01-01T01:08:20;23.25;45.30
65472;DHT22;52068;50.710;14.492;2023-01-01T01:10:45;23.20;45.40
65472;DHT22;52068;50.710;14.492;2023-01-01T01:13:11;23.15;45.59
65472;DHT22;52068;50.710;14.492;2023-01-01T01:15:37;23.14;45.74
65472;DHT22;52068;50.710;14.492;2023-01-01T01:18:02;23.08;45.89
65472;DHT22;52068;50.710;14.492;2023-01-01T01:20:27;23.06;46.03
65472;DHT22;52068;50.710;14.492;2023-01-01T01:22:53;23.00;46.13
65472;DHT22;52068;50.710;14.492;2023-01-01T01:25:18;22.99;46.27
65472;DHT22;52068;50.710;14.492;2023-01-01T01:27:44;22.99;46.37
65472;DHT22;52068;50.710;14.492;2023-01-01T01:30:09;22.97;46.49
65472;DHT22;52068;50.710;14.492;2023-01-01T01:32:35;23.00;46.30
65472;DHT22;52068;50.710;14.492;2023-01-01T01:35:00;23.13;46.24
65472;DHT22;52068;50.710;14.492;2023-01-01T01:37:25;23.24;46.05
65472;DHT22;52068;50.710;14.492;2023-01-01T01:39:51;23.33;45.86
65472;DHT22;52068;50.710;14.492;2023-01-01T01:42:17;23.41;45.73
65472;DHT22;52068;50.710;14.492;2023-01-01T01:48:04;23.51;45.61
65472;DHT22;52068;50.710;14.492;2023-01-01T01:50:11;23.51;45.60
65472;DHT22;52068;50.710;14.492;2023-01-01T01:53:11;23.47;45.64
65472;DHT22;52068;50.710;14.492;2023-01-01T01:55:43;23.47;45.71
65472;DHT22;52068;50.710;14.492;2023-01-01T01:58:10;23.41;45.76
65472;DHT22;52068;50.710;14.492;2023-01-01T02:00:36;23.38;45.89
65472;DHT22;52068;50.710;14.492;2023-01-01T02:03:05;23.35;46.01
65472;DHT22;52068;50.710;14.492;2023-01-01T02:05:32;23.30;46.11
65472;DHT22;52068;50.710;14.492;2023-01-01T02:07:59;23.25;46.26
65472;DHT22;52068;50.710;14.492;2023-01-01T02:10:26;23.21;46.42
65472;DHT22;52068;50.710;14.492;2023-01-01T02:12:52;23.18;46.61
65472;DHT22;52068;50.710;14.492;2023-01-01T02:15:18;23.13;46.66
65472;DHT22;52068;50.710;14.492;2023-01-01T02:31:18;23.00;47.16
65472;DHT22;52068;50.710;14.492;2023-01-01T02:33:46;23.03;47.09
65472;DHT22;52068;50.710;14.492;2023-01-01T02:36:13;23.10;46.97
65472;DHT22;52068;50.710;14.492;2023-01-01T02:38:51;23.17;46.79
65472;DHT22;52068;50.710;14.492;2023-01-01T02:41:24;23.27;46.61
65472;DHT22;52068;50.710;14.492;2023-01-01T02:43:52;23.31;46.39
65472;DHT22;52068;50.710;14.492;2023-01-01T02:46:17;23.38;46.33
65472;DHT22;52068;50.710;14.492;2023-01-01T02:51:23;23.41;46.32
65472;DHT22;52068;50.710;14.492;2023-01-01T02:54:00;23.41;46.40
65472;DHT22;52068;50.710;14.492;2023-01-01T03:02:09;23.28;46.69
65472;DHT22;52068;50.710;14.492;2023-01-01T03:10:15;23.10;47.33
65472;DHT22;52068;50.710;14.492;2023-01-01T03:12:46;23.06;47.48
65472;DHT22;52068;50.710;14.492;2023-01-01T03:17:57;22.96;47.69
65472;DHT22;52068;50.710;14.492;2023-01-01T03:20:26;22.87;47.87
65472;DHT22;52068;50.710;14.492;2023-01-01T03:22:57;22.86;47.52
65472;DHT22;52068;50.710;14.492;2023-01-01T03:25:27;22.84;47.71
65472;DHT22;52068;50.710;14.492;2023-01-01T03:27:58;22.83;47.46
65472;DHT22;52068;50.710;14.492;2023-01-01T03:30:24;22.84;47.66
65472;DHT22;52068;50.710;14.492;2023-01-01T03:33:42;23.00;47.46
65472;DHT22;52068;50.710;14.492;2023-01-01T03:35:49;23.14;47.11
65472;DHT22;52068;50.710;14.492;2023-01-01T03:38:26;23.24;46.80
65472;DHT22;52068;50.710;14.492;2023-01-01T03:41:00;23.31;46.72
65472;DHT22;52068;50.710;14.492;2023-01-01T03:43:44;23.37;46.67
65472;DHT22;52068;50.710;14.492;2023-01-01T03:46:12;23.37;46.69
65472;DHT22;52068;50.710;14.492;2023-01-01T03:48:38;23.34;46.75
65472;DHT22;52068;50.710;14.492;2023-01-01T04:00:12;23.24;47.01
65472;DHT22;52068;50.710;14.492;2023-01-01T04:05:14;23.14;47.29
65472;DHT22;52068;50.710;14.492;2023-01-01T04:07:40;23.07;47.41
65472;DHT22;52068;50.710;14.492;2023-01-01T04:10:07;23.04;47.58
65472;DHT22;52068;50.710;14.492;2023-01-01T04:12:52;22.97;47.87
65472;DHT22;52068;50.710;14.492;2023-01-01T04:15:22;22.92;47.78
65472;DHT22;52068;50.710;14.492;2023-01-01T04:17:48;22.86;47.57
65472;DHT22;52068;50.710;14.492;2023-01-01T04:20:14;22.80;48.13
65472;DHT22;52068;50.710;14.492;2023-01-01T04:22:40;22.77;48.04
65472;DHT22;52068;50.710;14.492;2023-01-01T04:25:06;22.74;48.27
65472;DHT22;52068;50.710;14.492;2023-01-01T04:27:32;22.77;48.28
65472;DHT22;52068;50.710;14.492;2023-01-01T04:29:57;22.80;48.27
65472;DHT22;52068;50.710;14.492;2023-01-01T04:32:23;22.90;47.97
65472;DHT22;52068;50.710;14.492;2023-01-01T04:34:48;22.99;47.74
65472;DHT22;52068;50.710;14.492;2023-01-01T04:37:14;23.08;47.64
65472;DHT22;52068;50.710;14.492;2023-01-01T04:39:40;23.13;47.52
65472;DHT22;52068;50.710;14.492;2023-01-01T04:42:05;23.18;47.48
65472;DHT22;52068;50.710;14.492;2023-01-01T04:44:31;23.20;47.46
65472;DHT22;52068;50.710;14.492;2023-01-01T04:46:56;23.20;47.44
65472;DHT22;52068;50.710;14.492;2023-01-01T04:49:22;23.18;47.52
65472;DHT22;52068;50.710;14.492;2023-01-01T04:51:47;23.17;47.48
65472;DHT22;52068;50.710;14.492;2023-01-01T04:54:13;23.14;47.51
65472;DHT22;52068;50.710;14.492;2023-01-01T04:56:38;23.13;47.57
65472;DHT22;52068;50.710;14.492;2023-01-01T04:59:04;23.08;47.60
65472;DHT22;52068;50.710;14.492;2023-01-01T05:01:29;23.04;47.60
65472;DHT22;52068;50.710;14.492;2023-01-01T05:03:55;22.99;47.55
65472;DHT22;52068;50.710;14.492;2023-01-01T05:06:22;22.93;47.81
65472;DHT22;52068;50.710;14.492;2023-01-01T05:08:48;22.86;47.92
65472;DHT22;52068;50.710;14.492;2023-01-01T05:11:26;22.80;48.18
65472;DHT22;52068;50.710;14.492;2023-01-01T05:13:53;22.74;48.38
65472;DHT22;52068;50.710;14.492;2023-01-01T05:16:21;22.70;48.28
65472;DHT22;52068;50.710;14.492;2023-01-01T05:18:48;22.66;48.47
65472;DHT22;52068;50.710;14.492;2023-01-01T05:21:16;22.62;48.35
65472;DHT22;52068;50.710;14.492;2023-01-01T05:23:42;22.60;47.89
65472;DHT22;52068;50.710;14.492;2023-01-01T05:26:35;22.66;48.16
65472;DHT22;52068;50.710;14.492;2023-01-01T05:29:01;22.83;47.98
65472;DHT22;52068;50.710;14.492;2023-01-01T05:31:28;22.97;47.32
65472;DHT22;52068;50.710;14.492;2023-01-01T05:33:54;23.11;47.00
65472;DHT22;52068;50.710;14.492;2023-01-01T05:36:29;23.25;47.12
65472;DHT22;52068;50.710;14.492;2023-01-01T05:38:55;23.33;46.86
65472;DHT22;52068;50.710;14.492;2023-01-01T05:41:21;23.33;46.85
65472;DHT22;52068;50.710;14.492;2023-01-01T05:43:47;23.33;46.92
65472;DHT22;52068;50.710;14.492;2023-01-01T05:46:16;23.30;46.90
65472;DHT22;52068;50.710;14.492;2023-01-01T05:48:42;23.30;46.81
65472;DHT22;52068;50.710;14.492;2023-01-01T05:51:27;23.27;46.98
65472;DHT22;52068;50.710;14.492;2023-01-01T05:53:53;23.18;47.03
65472;DHT22;52068;50.710;14.492;2023-01-01T05:56:19;23.14;47.09
65472;DHT22;52068;50.710;14.492;2023-01-01T05:58:45;23.08;46.99
65472;DHT22;52068;50.710;14.492;2023-01-01T06:01:15;22.99;47.10
65472;DHT22;52068;50.710;14.492;2023-01-01T06:03:41;22.97;47.38
65472;DHT22;52068;50.710;14.492;2023-01-01T06:06:10;22.89;47.49
65472;DHT22;52068;50.710;14.492;2023-01-01T06:08:36;22.83;47.59
65472;DHT22;52068;50.710;14.492;2023-01-01T06:11:03;22.77;47.70
65472;DHT22;52068;50.710;14.492;2023-01-01T06:13:29;22.70;47.81
65472;DHT22;52068;50.710;14.492;2023-01-01T06:15:56;22.64;47.84
65472;DHT22;52068;50.710;14.492;2023-01-01T06:18:22;22.59;47.54
65472;DHT22;52068;50.710;14.492;2023-01-01T06:20:48;22.56;47.93
65472;DHT22;52068;50.710;14.492;2023-01-01T06:23:13;22.55;47.78
65472;DHT22;52068;50.710;14.492;2023-01-01T06:25:39;22.59;47.70
65472;DHT22;52068;50.710;14.492;2023-01-01T06:28:04;22.72;47.61
65472;DHT22;52068;50.710;14.492;2023-01-01T06:30:30;22.93;47.47
65472;DHT22;52068;50.710;14.492;2023-01-01T06:32:58;23.04;43.02
65472;DHT22;52068;50.710;14.492;2023-01-01T06:35:23;22.99;42.38
65472;DHT22;52068;50.710;14.492;2023-01-01T06:37:49;23.02;44.03
65472;DHT22;52068;50.710;14.492;2023-01-01T06:40:14;23.38;44.18
65472;DHT22;52068;50.710;14.492;2023-01-01T06:42:40;24.13;42.84
65472;DHT22;52068;50.710;14.492;2023-01-01T06:45:05;25.24;40.93
65472;DHT22;52068;50.710;14.492;2023-01-01T06:47:34;26.47;38.54
65472;DHT22;52068;50.710;14.492;2023-01-01T06:50:03;27.33;36.80
65472;DHT22;52068;50.710;14.492;2023-01-01T06:52:29;27.88;35.79
65472;DHT22;52068;50.710;14.492;2023-01-01T06:54:54;28.08;35.42
65472;DHT22;52068;50.710;14.492;2023-01-01T06:57:20;28.05;35.46
65472;DHT22;52068;50.710;14.492;2023-01-01T06:59:45;27.81;35.78
65472;DHT22;52068;50.710;14.492;2023-01-01T07:02:10;27.50;36.36
65472;DHT22;52068;50.710;14.492;2023-01-01T07:04:36;27.27;36.76
65472;DHT22;52068;50.710;14.492;2023-01-01T07:07:02;27.05;37.16
65472;DHT22;52068;50.710;14.492;2023-01-01T07:09:28;26.85;37.59
65472;DHT22;52068;50.710;14.492;2023-01-01T07:11:53;26.54;38.09
65472;DHT22;52068;50.710;14.492;2023-01-01T07:14:18;26.23;38.57
65472;DHT22;52068;50.710;14.492;2023-01-01T07:16:44;26.03;38.85
65472;DHT22;52068;50.710;14.492;2023-01-01T07:19:09;25.79;39.33
65472;DHT22;52068;50.710;14.492;2023-01-01T07:21:45;25.50;39.65
65472;DHT22;52068;50.710;14.492;2023-01-01T07:24:15;25.28;40.13
65472;DHT22;52068;50.710;14.492;2023-01-01T07:26:41;25.04;40.54
65472;DHT22;52068;50.710;14.492;2023-01-01T07:29:07;24.84;40.97
65472;DHT22;52068;50.710;14.492;2023-01-01T07:31:36;24.63;41.32
65472;DHT22;52068;50.710;14.492;2023-01-01T07:34:02;24.44;41.74
65472;DHT22;52068;50.710;14.492;2023-01-01T07:36:28;24.26;42.05
65472;DHT22;52068;50.710;14.492;2023-01-01T07:38:53;24.10;42.48
65472;DHT22;52068;50.710;14.492;2023-01-01T07:41:18;23.99;42.60
65472;DHT22;52068;50.710;14.492;2023-01-01T07:43:44;23.85;42.87
65472;DHT22;52068;50.710;14.492;2023-01-01T07:46:11;23.75;43.19
65472;DHT22;52068;50.710;14.492;2023-01-01T07:48:37;23.65;43.21
65472;DHT22;52068;50.710;14.492;2023-01-01T07:51:02;23.52;43.42
65472;DHT22;52068;50.710;14.492;2023-01-01T07:53:27;23.44;43.82
65472;DHT22;52068;50.710;14.492;2023-01-01T07:55:53;23.35;43.87
65472;DHT22;52068;50.710;14.492;2023-01-01T07:58:18;23.25;44.02
65472;DHT22;52068;50.710;14.492;2023-01-01T08:00:46;23.20;44.33
65472;DHT22;52068;50.710;14.492;2023-01-01T08:03:12;23.08;44.57
65472;DHT22;52068;50.710;14.492;2023-01-01T08:05:37;23.07;44.72
65472;DHT22;52068;50.710;14.492;2023-01-01T08:08:03;23.02;45.01
65472;DHT22;52068;50.710;14.492;2023-01-01T08:10:29;22.97;45.17
65472;DHT22;52068;50.710;14.492;2023-01-01T08:13:03;22.93;45.47
65472;DHT22;52068;50.710;14.492;2023-01-01T08:15:29;22.89;45.83
65472;DHT22;52068;50.710;14.492;2023-01-01T08:17:58;22.90;46.05
65472;DHT22;52068;50.710;14.492;2023-01-01T08:20:25;22.90;46.03
65472;DHT22;52068;50.710;14.492;2023-01-01T08:22:50;22.90;46.14
65472;DHT22;52068;50.710;14.492;2023-01-01T08:25:16;22.90;46.21
65472;DHT22;52068;50.710;14.492;2023-01-01T08:27:41;22.89;46.24
65472;DHT22;52068;50.710;14.492;2023-01-01T08:30:08;22.87;46.28
65472;DHT22;52068;50.710;14.492;2023-01-01T08:32:34;22.87;46.23
65472;DHT22;52068;50.710;14.492;2023-01-01T08:34:59;22.87;46.27
65472;DHT22;52068;50.710;14.492;2023-01-01T08:37:25;22.87;46.24
65472;DHT22;52068;50.710;14.492;2023-01-01T08:39:51;22.87;46.25
65472;DHT22;52068;50.710;14.492;2023-01-01T08:42:17;22.83;46.29
65472;DHT22;52068;50.710;14.492;2023-01-01T08:44:42;22.84;46.25
65472;DHT22;52068;50.710;14.492;2023-01-01T08:47:19;22.86;46.16
65472;DHT22;52068;50.710;14.492;2023-01-01T08:49:45;22.89;46.09
65472;DHT22;52068;50.710;14.492;2023-01-01T08:52:11;22.92;45.92
65472;DHT22;52068;50.710;14.492;2023-01-01T08:54:36;22.99;45.77
65472;DHT22;52068;50.710;14.492;2023-01-01T08:57:03;23.02;45.60
65472;DHT22;52068;50.710;14.492;2023-01-01T08:59:29;23.04;45.51
65472;DHT22;52068;50.710;14.492;2023-01-01T09:01:54;23.07;45.17
65472;DHT22;52068;50.710;14.492;2023-01-01T09:04:19;23.07;45.11
65472;DHT22;52068;50.710;14.492;2023-01-01T09:06:45;23.04;45.01
65472;DHT22;52068;50.710;14.492;2023-01-01T09:09:10;23.02;45.24
65472;DHT22;52068;50.710;14.492;2023-01-01T09:11:35;23.02;45.34
65472;DHT22;52068;50.710;14.492;2023-01-01T09:14:01;22.97;45.25
65472;DHT22;52068;50.710;14.492;2023-01-01T09:16:26;22.93;45.15
65472;DHT22;52068;50.710;14.492;2023-01-01T09:18:52;22.93;44.96
65472;DHT22;52068;50.710;14.492;2023-01-01T09:21:17;22.87;45.46
65472;DHT22;52068;50.710;14.492;2023-01-01T09:23:42;22.84;45.39
65472;DHT22;52068;50.710;14.492;2023-01-01T09:26:09;22.82;45.53
65472;DHT22;52068;50.710;14.492;2023-01-01T09:28:36;22.80;45.46
65472;DHT22;52068;50.710;14.492;2023-01-01T09:31:02;22.76;45.37
65472;DHT22;52068;50.710;14.492;2023-01-01T09:33:30;22.77;45.23
65472;DHT22;52068;50.710;14.492;2023-01-01T09:36:11;22.76;45.27
65472;DHT22;52068;50.710;14.492;2023-01-01T09:38:36;22.73;45.36
65472;DHT22;52068;50.710;14.492;2023-01-01T09:46:32;22.80;45.24
65472;DHT22;52068;50.710;14.492;2023-01-01T09:49:01;22.86;45.15
65472;DHT22;52068;50.710;14.492;2023-01-01T09:51:33;22.90;44.78
65472;DHT22;52068;50.710;14.492;2023-01-01T09:54:06;22.94;44.89
65472;DHT22;52068;50.710;14.492;2023-01-01T09:56:35;22.99;44.94
65472;DHT22;52068;50.710;14.492;2023-01-01T09:59:02;23.06;44.87
65472;DHT22;52068;50.710;14.492;2023-01-01T10:09:53;23.04;44.93
65472;DHT22;52068;50.710;14.492;2023-01-01T10:12:35;23.06;45.01
65472;DHT22;52068;50.710;14.492;2023-01-01T10:15:15;23.03;45.16
65472;DHT22;52068;50.710;14.492;2023-01-01T10:17:48;22.99;45.07
65472;DHT22;52068;50.710;14.492;2023-01-01T10:23:34;22.93;45.04
65472;DHT22;52068;50.710;14.492;2023-01-01T10:26:10;22.90;45.10
65472;DHT22;52068;50.710;14.492;2023-01-01T10:29:05;22.87;45.03
65472;DHT22;52068;50.710;14.492;2023-01-01T10:31:37;22.84;45.12
65472;DHT22;52068;50.710;14.492;2023-01-01T10:34:25;22.82;45.10
65472;DHT22;52068;50.710;14.492;2023-01-01T10:36:54;22.80;45.11
65472;DHT22;52068;50.710;14.492;2023-01-01T10:39:20;22.79;45.13
65472;DHT22;52068;50.710;14.492;2023-01-01T10:41:45;22.79;45.25
65472;DHT22;52068;50.710;14.492;2023-01-01T10:44:12;22.79;45.21
65472;DHT22;52068;50.710;14.492;2023-01-01T10:46:42;22.77;44.94
65472;DHT22;52068;50.710;14.492;2023-01-01T10:49:10;22.79;44.67
65472;DHT22;52068;50.710;14.492;2023-01-01T10:51:47;22.77;44.70
65472;DHT22;52068;50.710;14.492;2023-01-01T10:54:37;22.79;44.71
65472;DHT22;52068;50.710;14.492;2023-01-01T10:57:35;22.83;44.60
65472;DHT22;52068;50.710;14.492;2023-01-01T11:00:23;22.86;44.45
65472;DHT22;52068;50.710;14.492;2023-01-01T11:03:19;22.89;44.33
65472;DHT22;52068;50.710;14.492;2023-01-01T11:06:05;22.90;44.07
65472;DHT22;52068;50.710;14.492;2023-01-01T11:08:33;22.93;43.99
65472;DHT22;52068;50.710;14.492;2023-01-01T11:11:01;22.94;43.69
65472;DHT22;52068;50.710;14.492;2023-01-01T11:13:27;22.97;43.73
65472;DHT22;52068;50.710;14.492;2023-01-01T11:15:54;22.97;43.76
65472;DHT22;52068;50.710;14.492;2023-01-01T11:18:22;22.96;43.78
65472;DHT22;52068;50.710;14.492;2023-01-01T11:20:52;22.96;43.64
65472;DHT22;52068;50.710;14.492;2023-01-01T11:23:27;22.97;43.77
65472;DHT22;52068;50.710;14.492;2023-01-01T11:26:22;22.97;43.84
65472;DHT22;52068;50.710;14.492;2023-01-01T11:29:04;22.97;43.88
65472;DHT22;52068;50.710;14.492;2023-01-01T11:31:42;22.97;43.89
65472;DHT22;52068;50.710;14.492;2023-01-01T11:36:50;22.94;43.93
65472;DHT22;52068;50.710;14.492;2023-01-01T11:39:24;22.94;43.93
65472;DHT22;52068;50.710;14.492;2023-01-01T11:41:52;22.94;43.97
65472;DHT22;52068;50.710;14.492;2023-01-01T11:44:40;22.96;44.03
65472;DHT22;52068;50.710;14.492;2023-01-01T11:47:22;22.92;43.92
65472;DHT22;52068;50.710;14.492;2023-01-01T11:50:03;22.92;43.88
65472;DHT22;52068;50.710;14.492;2023-01-01T11:52:38;22.92;44.00
65472;DHT22;52068;50.710;14.492;2023-01-01T11:55:21;22.90;43.98
65472;DHT22;52068;50.710;14.492;2023-01-01T11:57:55;22.94;43.91
65472;DHT22;52068;50.710;14.492;2023-01-01T12:00:21;22.92;43.97
65472;DHT22;52068;50.710;14.492;2023-01-01T12:02:57;22.92;44.24
65472;DHT22;52068;50.710;14.492;2023-01-01T12:05:37;22.93;44.40
65472;DHT22;52068;50.710;14.492;2023-01-01T12:08:08;22.94;44.30
65472;DHT22;52068;50.710;14.492;2023-01-01T12:10:59;22.93;44.32
65472;DHT22;52068;50.710;14.492;2023-01-01T12:13:29;22.97;44.53
65472;DHT22;52068;50.710;14.492;2023-01-01T12:16:19;22.97;44.64
65472;DHT22;52068;50.710;14.492;2023-01-01T12:19:00;23.02;44.70
65472;DHT22;52068;50.710;14.492;2023-01-01T12:21:27;23.00;44.73
65472;DHT22;52068;50.710;14.492;2023-01-01T12:23:54;23.04;44.75
65472;DHT22;52068;50.710;14.492;2023-01-01T12:34:17;22.99;44.83
65472;DHT22;52068;50.710;14.492;2023-01-01T12:42:25;22.97;44.88
65472;DHT22;52068;50.710;14.492;2023-01-01T12:51:00;22.94;45.12
65472;DHT22;52068;50.710;14.492;2023-01-01T12:56:14;22.92;45.55
65472;DHT22;52068;50.710;14.492;2023-01-01T12:58:47;22.93;45.60
65472;DHT22;52068;50.710;14.492;2023-01-01T13:01:22;22.94;45.64
65472;DHT22;52068;50.710;14.492;2023-01-01T13:03:53;23.00;45.67
65472;DHT22;52068;50.710;14.492;2023-01-01T13:07:10;23.02;45.66
65472;DHT22;52068;50.710;14.492;2023-01-01T13:09:22;23.04;45.71
65472;DHT22;52068;50.710;14.492;2023-01-01T13:11:54;23.06;45.71
65472;DHT22;52068;50.710;14.492;2023-01-01T13:14:20;23.08;45.80
65472;DHT22;52068;50.710;14.492;2023-01-01T13:16:56;23.08;45.92
65472;DHT22;52068;50.710;14.492;2023-01-01T13:19:34;23.13;45.86
65472;DHT22;52068;50.710;14.492;2023-01-01T13:22:34;23.10;46.08
65472;DHT22;52068;50.710;14.492;2023-01-01T13:25:14;23.10;46.25
65472;DHT22;52068;50.710;14.492;2023-01-01T13:30:49;23.10;46.36
65472;DHT22;52068;50.710;14.492;2023-01-01T13:33:26;23.10;46.42
65472;DHT22;52068;50.710;14.492;2023-01-01T13:38:51;23.07;46.57
65472;DHT22;52068;50.710;14.492;2023-01-01T13:53:01;23.02;46.31
65472;DHT22;52068;50.710;14.492;2023-01-01T13:58:23;22.97;46.32
65472;DHT22;52068;50.710;14.492;2023-01-01T14:03:44;22.97;46.52
65472;DHT22;52068;50.710;14.492;2023-01-01T14:06:26;22.97;46.42
65472;DHT22;52068;50.710;14.492;2023-01-01T14:11:30;23.04;46.09
65472;DHT22;52068;50.710;14.492;2023-01-01T14:13:55;23.06;45.71
65472;DHT22;52068;50.710;14.492;2023-01-01T14:16:21;23.06;45.55
65472;DHT22;52068;50.710;14.492;2023-01-01T14:18:49;23.10;45.55
65472;DHT22;52068;50.710;14.492;2023-01-01T14:21:17;23.11;45.53
65472;DHT22;52068;50.710;14.492;2023-01-01T14:23:47;23.14;45.55
65472;DHT22;52068;50.710;14.492;2023-01-01T14:26:14;23.11;45.51
65472;DHT22;52068;50.710;14.492;2023-01-01T14:28:41;23.13;45.54
65472;DHT22;52068;50.710;14.492;2023-01-01T14:31:13;23.13;45.44
65472;DHT22;52068;50.710;14.492;2023-01-01T14:33:39;23.13;45.45
65472;DHT22;52068;50.710;14.492;2023-01-01T14:36:14;23.13;45.38
65472;DHT22;52068;50.710;14.492;2023-01-01T14:38:45;23.13;45.58
65472;DHT22;52068;50.710;14.492;2023-01-01T14:43:55;23.07;45.58
65472;DHT22;52068;50.710;14.492;2023-01-01T14:46:23;23.04;45.98
65472;DHT22;52068;50.710;14.492;2023-01-01T14:48:53;23.02;45.96
65472;DHT22;52068;50.710;14.492;2023-01-01T14:51:22;23.00;46.01
65472;DHT22;52068;50.710;14.492;2023-01-01T14:53:49;22.97;45.99
65472;DHT22;52068;50.710;14.492;2023-01-01T14:56:26;22.96;46.21
65472;DHT22;52068;50.710;14.492;2023-01-01T14:58:55;22.92;46.20
65472;DHT22;52068;50.710;14.492;2023-01-01T15:01:26;22.90;46.40
65472;DHT22;52068;50.710;14.492;2023-01-01T15:03:57;22.89;46.37
65472;DHT22;52068;50.710;14.492;2023-01-01T15:06:23;22.87;46.36
65472;DHT22;52068;50.710;14.492;2023-01-01T15:08:50;22.86;46.58
65472;DHT22;52068;50.710;14.492;2023-01-01T15:11:16;22.86;46.45
65472;DHT22;52068;50.710;14.492;2023-01-01T15:13:55;22.83;46.47
65472;DHT22;52068;50.710;14.492;2023-01-01T15:16:21;22.84;46.50
65472;DHT22;52068;50.710;14.492;2023-01-01T15:18:48;22.87;46.31
65472;DHT22;52068;50.710;14.492;2023-01-01T15:21:36;22.86;46.25
65472;DHT22;52068;50.710;14.492;2023-01-01T15:29:10;22.90;46.23
65472;DHT22;52068;50.710;14.492;2023-01-01T15:31:41;22.96;46.07
65472;DHT22;52068;50.710;14.492;2023-01-01T15:37:11;23.02;46.10
65472;DHT22;52068;50.710;14.492;2023-01-01T15:39:47;23.02;45.99
65472;DHT22;52068;50.710;14.492;2023-01-01T15:42:36;23.02;46.01
65472;DHT22;52068;50.710;14.492;2023-01-01T15:45:27;23.00;46.07
65472;DHT22;52068;50.710;14.492;2023-01-01T15:47:56;23.00;46.07
65472;DHT22;52068;50.710;14.492;2023-01-01T15:52:50;22.96;46.03
65472;DHT22;52068;50.710;14.492;2023-01-01T15:55:17;22.92;46.08
65472;DHT22;52068;50.710;14.492;2023-01-01T15:57:46;22.92;45.91
65472;DHT22;52068;50.710;14.492;2023-01-01T16:00:34;22.87;46.13
65472;DHT22;52068;50.710;14.492;2023-01-01T16:03:22;22.84;46.20
65472;DHT22;52068;50.710;14.492;2023-01-01T16:05:50;22.80;46.33
65472;DHT22;52068;50.710;14.492;2023-01-01T16:08:16;22.77;46.48
65472;DHT22;52068;50.710;14.492;2023-01-01T16:10:44;22.76;46.43
65472;DHT22;52068;50.710;14.492;2023-01-01T16:13:09;22.72;46.43
65472;DHT22;52068;50.710;14.492;2023-01-01T16:15:37;22.74;46.57
65472;DHT22;52068;50.710;14.492;2023-01-01T16:18:12;22.74;46.81
65472;DHT22;52068;50.710;14.492;2023-01-01T16:20:40;22.76;46.74
65472;DHT22;52068;50.710;14.492;2023-01-01T16:23:07;22.82;46.76
65472;DHT22;52068;50.710;14.492;2023-01-01T16:25:32;22.82;46.82
65472;DHT22;52068;50.710;14.492;2023-01-01T16:27:58;22.86;46.75
65472;DHT22;52068;50.710;14.492;2023-01-01T16:30:24;22.92;46.55
65472;DHT22;52068;50.710;14.492;2023-01-01T16:32:50;22.94;46.58
65472;DHT22;52068;50.710;14.492;2023-01-01T16:35:15;22.97;46.56
65472;DHT22;52068;50.710;14.492;2023-01-01T16:37:41;22.99;46.50
65472;DHT22;52068;50.710;14.492;2023-01-01T16:40:07;23.03;46.31
65472;DHT22;52068;50.710;14.492;2023-01-01T16:42:32;23.03;46.29
65472;DHT22;52068;50.710;14.492;2023-01-01T16:44:58;23.07;46.18
65472;DHT22;52068;50.710;14.492;2023-01-01T16:47:23;23.07;46.34
65472;DHT22;52068;50.710;14.492;2023-01-01T16:49:48;23.07;46.26
65472;DHT22;52068;50.710;14.492;2023-01-01T16:52:14;23.03;46.26
65472;DHT22;52068;50.710;14.492;2023-01-01T16:54:39;23.04;46.33
65472;DHT22;52068;50.710;14.492;2023-01-01T16:57:04;23.02;46.36
65472;DHT22;52068;50.710;14.492;2023-01-01T16:59:30;22.97;46.52
65472;DHT22;52068;50.710;14.492;2023-01-01T17:01:55;22.96;46.53
65472;DHT22;52068;50.710;14.492;2023-01-01T17:04:21;22.93;46.63
65472;DHT22;52068;50.710;14.492;2023-01-01T17:06:46;22.90;46.84
65472;DHT22;52068;50.710;14.492;2023-01-01T17:09:12;22.83;46.80
65472;DHT22;52068;50.710;14.492;2023-01-01T17:11:39;22.82;46.75
65472;DHT22;52068;50.710;14.492;2023-01-01T17:14:04;22.82;46.77
65472;DHT22;52068;50.710;14.492;2023-01-01T17:16:31;22.79;46.73
65472;DHT22;52068;50.710;14.492;2023-01-01T17:18:57;22.77;46.87
65472;DHT22;52068;50.710;14.492;2023-01-01T17:21:23;22.74;46.89
65472;DHT22;52068;50.710;14.492;2023-01-01T17:23:48;22.73;46.98
65472;DHT22;52068;50.710;14.492;2023-01-01T17:26:15;22.73;46.86
65472;DHT22;52068;50.710;14.492;2023-01-01T17:28:42;22.74;46.81
65472;DHT22;52068;50.710;14.492;2023-01-01T17:31:11;22.76;46.74
65472;DHT22;52068;50.710;14.492;2023-01-01T17:33:37;22.77;46.67
65472;DHT22;52068;50.710;14.492;2023-01-01T17:36:04;22.79;46.56
65472;DHT22;52068;50.710;14.492;2023-01-01T17:38:30;22.82;46.62